sensor_id;sensor_type;location;lat;lon;timestamp;temperature;humidity
74153;DHT22;62505;46.070;14.492;2024-03-23T00:55:36;22.20;58.50
74153;DHT22;62505;46.070;14.492;2024-03-23T00:58:03;22.20;58.50
74153;DHT22;62505;46.070;14.492;2024-03-23T01:00:29;22.20;58.50
74153;DHT22;62505;46.070;14.492;2024-03-23T01:02:56;22.20;58.50
74153;DHT22;62505;46.070;14.492;2024-03-23T01:05:22;22.20;58.50
74153;DHT22;62505;46.070;14.492;2024-03-23T01:07:49;22.20;59.10
74153;DHT22;62505;46.070;14.492;2024-03-23T01:10:16;22.20;58.50
74153;DHT22;62505;46.070;14.492;2024-03-23T01:12:43;22.20;58.40
74153;DHT22;62505;46.070;14.492;2024-03-23T01:15:09;22.20;58.50
74153;DHT22;62505;46.070;14.492;2024-03-23T01:17:36;22.20;58.50
74153;DHT22;62505;46.070;14.492;2024-03-23T01:20:02;22.20;58.50
74153;DHT22;62505;46.070;14.492;2024-03-23T01:22:29;22.20;58.50
74153;DHT22;62505;46.070;14.492;2024-03-23T01:24:55;22.20;58.50
74153;DHT22;62505;46.070;14.492;2024-03-23T01:27:24;22.20;59.10
74153;DHT22;62505;46.070;14.492;2024-03-23T01:29:49;22.20;58.50
74153;DHT22;62505;46.070;14.492;2024-03-23T01:32:18;22.20;58.50
74153;DHT22;62505;46.070;14.492;2024-03-23T01:34:44;22.20;58.50
74153;DHT22;62505;46.070;14.492;2024-03-23T01:37:11;22.20;58.50
74153;DHT22;62505;46.070;14.492;2024-03-23T01:39:37;22.20;58.50
74153;DHT22;62505;46.070;14.492;2024-03-23T01:42:04;22.20;58.60
74153;DHT22;62505;46.070;14.492;2024-03-23T01:44:31;22.20;58.60
74153;DHT22;62505;46.070;14.492;2024-03-23T01:46:58;22.20;58.60
74153;DHT22;62505;46.070;14.492;2024-03-23T01:49:24;22.20;58.50
74153;DHT22;62505;46.070;14.492;2024-03-23T01:51:51;22.20;58.60
74153;DHT22;62505;46.070;14.492;2024-03-23T01:54:17;22.20;58.60
74153;DHT22;62505;46.070;14.492;2024-03-23T01:56:45;22.20;58.70
74153;DHT22;62505;46.070;14.492;2024-03-23T01:59:11;22.20;58.60
74153;DHT22;62505;46.070;14.492;2024-03-23T02:01:39;22.20;58.60
74153;DHT22;62505;46.070;14.492;2024-03-23T02:04:05;22.20;58.70
74153;DHT22;62505;46.070;14.492;2024-03-23T02:06:34;22.20;58.70
74153;DHT22;62505;46.070;14.492;2024-03-23T02:09:00;22.20;58.70
74153;DHT22;62505;46.070;14.492;2024-03-23T02:11:27;22.20;58.80
74153;DHT22;62505;46.070;14.492;2024-03-23T02:13:53;22.20;58.80
74153;DHT22;62505;46.070;14.492;2024-03-23T02:16:20;22.20;58.80
74153;DHT22;62505;46.070;14.492;2024-03-23T02:18:48;22.20;58.80
74153;DHT22;62505;46.070;14.492;2024-03-23T02:21:15;22.20;58.70
74153;DHT22;62505;46.070;14.492;2024-03-23T02:23:42;22.20;58.80
74153;DHT22;62505;46.070;14.492;2024-03-23T02:26:09;22.20;58.80
74153;DHT22;62505;46.070;14.492;2024-03-23T02:28:35;22.20;58.80
74153;DHT22;62505;46.070;14.492;2024-03-23T02:31:03;22.20;58.80
74153;DHT22;62505;46.070;14.492;2024-03-23T02:33:30;22.20;58.80
74153;DHT22;62505;46.070;14.492;2024-03-23T02:35:57;22.20;58.80
74153;DHT22;62505;46.070;14.492;2024-03-23T02:38:23;22.20;58.80
74153;DHT22;62505;46.070;14.492;2024-03-23T02:40:51;22.20;58.80
74153;DHT22;62505;46.070;14.492;2024-03-23T02:43:17;22.20;58.90
74153;DHT22;62505;46.070;14.492;2024-03-23T02:45:44;22.20;58.90
74153;DHT22;62505;46.070;14.492;2024-03-23T02:48:10;22.20;58.90
74153;DHT22;62505;46.070;14.492;2024-03-23T02:50:37;22.20;59.00
74153;DHT22;62505;46.070;14.492;2024-03-23T02:53:04;22.20;59.00
74153;DHT22;62505;46.070;14.492;2024-03-23T02:55:31;22.20;59.10
74153;DHT22;62505;46.070;14.492;2024-03-23T02:57:58;22.20;59.10
74153;DHT22;62505;46.070;14.492;2024-03-23T03:00:27;22.20;59.10
74153;DHT22;62505;46.070;14.492;2024-03-23T03:02:53;22.20;59.10
74153;DHT22;62505;46.070;14.492;2024-03-23T03:05:21;22.20;59.10
74153;DHT22;62505;46.070;14.492;2024-03-23T03:07:47;22.20;59.10
74153;DHT22;62505;46.070;14.492;2024-03-23T03:10:14;22.20;59.10
74153;DHT22;62505;46.070;14.492;2024-03-23T03:12:40;22.20;59.10
74153;DHT22;62505;46.070;14.492;2024-03-23T03:15:09;22.20;59.20
74153;DHT22;62505;46.070;14.492;2024-03-23T03:17:35;22.20;59.20
74153;DHT22;62505;46.070;14.492;2024-03-23T03:20:02;22.20;59.20
74153;DHT22;62505;46.070;14.492;2024-03-23T03:22:30;22.20;59.30
74153;DHT22;62505;46.070;14.492;2024-03-23T03:24:57;22.20;59.30
74153;DHT22;62505;46.070;14.492;2024-03-23T03:27:23;22.20;59.30
74153;DHT22;62505;46.070;14.492;2024-03-23T03:29:50;22.30;59.40
74153;DHT22;62505;46.070;14.492;2024-03-23T03:32:17;22.20;59.30
74153;DHT22;62505;46.070;14.492;2024-03-23T03:34:44;22.20;59.30
74153;DHT22;62505;46.070;14.492;2024-03-23T03:37:10;22.20;59.30
74153;DHT22;62505;46.070;14.492;2024-03-23T03:39:37;22.20;59.40
74153;DHT22;62505;46.070;14.492;2024-03-23T03:42:03;22.20;59.30
74153;DHT22;62505;46.070;14.492;2024-03-23T03:44:32;22.20;59.30
74153;DHT22;62505;46.070;14.492;2024-03-23T03:46:58;22.20;59.20
74153;DHT22;62505;46.070;14.492;2024-03-23T03:49:26;22.20;59.30
74153;DHT22;62505;46.070;14.492;2024-03-23T03:51:52;22.20;59.30
74153;DHT22;62505;46.070;14.492;2024-03-23T03:54:19;22.20;59.20
74153;DHT22;62505;46.070;14.492;2024-03-23T03:56:45;22.20;59.30
74153;DHT22;62505;46.070;14.492;2024-03-23T03:59:12;22.20;59.20
74153;DHT22;62505;46.070;14.492;2024-03-23T04:01:38;22.20;59.20
74153;DHT22;62505;46.070;14.492;2024-03-23T04:04:05;22.20;59.20
74153;DHT22;62505;46.070;14.492;2024-03-23T04:06:33;22.20;59.20
74153;DHT22;62505;46.070;14.492;2024-03-23T04:09:00;22.20;59.30
74153;DHT22;62505;46.070;14.492;2024-03-23T04:11:26;22.20;59.30
74153;DHT22;62505;46.070;14.492;2024-03-23T04:13:54;22.20;59.20
74153;DHT22;62505;46.070;14.492;2024-03-23T04:16:27;22.20;59.30
74153;DHT22;62505;46.070;14.492;2024-03-23T04:18:54;22.20;59.30
74153;DHT22;62505;46.070;14.492;2024-03-23T04:21:21;22.20;59.20
74153;DHT22;62505;46.070;14.492;2024-03-23T04:23:49;22.20;59.30
74153;DHT22;62505;46.070;14.492;2024-03-23T04:26:16;22.20;59.30
74153;DHT22;62505;46.070;14.492;2024-03-23T04:28:43;22.20;59.30
74153;DHT22;62505;46.070;14.492;2024-03-23T04:31:09;22.20;59.30
74153;DHT22;62505;46.070;14.492;2024-03-23T04:33:35;22.20;59.30
74153;DHT22;62505;46.070;14.492;2024-03-23T04:36:02;22.20;59.30
74153;DHT22;62505;46.070;14.492;2024-03-23T04:38:29;22.20;59.30
74153;DHT22;62505;46.070;14.492;2024-03-23T04:40:58;22.20;59.40
74153;DHT22;62505;46.070;14.492;2024-03-23T04:43:26;22.20;59.90
74153;DHT22;62505;46.070;14.492;2024-03-23T04:45:53;22.20;59.30
74153;DHT22;62505;46.070;14.492;2024-03-23T04:48:20;22.20;59.30
74153;DHT22;62505;46.070;14.492;2024-03-23T04:50:48;22.20;59.40
74153;DHT22;62505;46.070;14.492;2024-03-23T04:53:16;22.20;59.30
74153;DHT22;62505;46.070;14.492;2024-03-23T04:55:43;22.20;59.40
74153;DHT22;62505;46.070;14.492;2024-03-23T04:58:11;22.20;59.40
74153;DHT22;62505;46.070;14.492;2024-03-23T05:00:37;22.20;59.40
74153;DHT22;62505;46.070;14.492;2024-03-23T05:03:04;22.20;59.40
74153;DHT22;62505;46.070;14.492;2024-03-23T05:05:30;22.20;59.40
74153;DHT22;62505;46.070;14.492;2024-03-23T05:07:57;22.20;59.40
74153;DHT22;62505;46.070;14.492;2024-03-23T05:10:23;22.20;59.40
74153;DHT22;62505;46.070;14.492;2024-03-23T05:12:50;22.20;59.40
74153;DHT22;62505;46.070;14.492;2024-03-23T05:15:18;22.20;59.40
74153;DHT22;62505;46.070;14.492;2024-03-23T05:17:45;22.20;59.50
74153;DHT22;62505;46.070;14.492;2024-03-23T05:20:11;22.20;59.50
74153;DHT22;62505;46.070;14.492;2024-03-23T05:22:39;22.20;59.40
74153;DHT22;62505;46.070;14.492;2024-03-23T05:25:06;22.20;59.40
74153;DHT22;62505;46.070;14.492;2024-03-23T05:27:33;22.20;59.40
74153;DHT22;62505;46.070;14.492;2024-03-23T05:29:59;22.20;59.40
74153;DHT22;62505;46.070;14.492;2024-03-23T05:32:27;22.20;59.40
74153;DHT22;62505;46.070;14.492;2024-03-23T05:34:54;22.20;59.30
74153;DHT22;62505;46.070;14.492;2024-03-23T05:37:22;22.20;59.40
74153;DHT22;62505;46.070;14.492;2024-03-23T05:39:48;22.20;59.40
74153;DHT22;62505;46.070;14.492;2024-03-23T05:42:16;22.20;59.40
74153;DHT22;62505;46.070;14.492;2024-03-23T05:44:43;22.20;59.40
74153;DHT22;62505;46.070;14.492;2024-03-23T05:47:10;22.20;59.40
74153;DHT22;62505;46.070;14.492;2024-03-23T05:49:38;22.20;59.40
74153;DHT22;62505;46.070;14.492;2024-03-23T05:52:07;22.20;59.40
74153;DHT22;62505;46.070;14.492;2024-03-23T05:54:33;22.20;59.50
74153;DHT22;62505;46.070;14.492;2024-03-23T05:57:00;22.20;59.50
74153;DHT22;62505;46.070;14.492;2024-03-23T05:59:26;22.20;59.50
74153;DHT22;62505;46.070;14.492;2024-03-23T06:01:53;22.20;59.70
74153;DHT22;62505;46.070;14.492;2024-03-23T06:04:19;22.20;59.70
74153;DHT22;62505;46.070;14.492;2024-03-23T06:06:48;22.20;59.70
74153;DHT22;62505;46.070;14.492;2024-03-23T06:09:14;22.20;59.70
74153;DHT22;62505;46.070;14.492;2024-03-23T06:11:41;22.20;59.60
74153;DHT22;62505;46.070;14.492;2024-03-23T06:14:07;22.20;59.70
74153;DHT22;62505;46.070;14.492;2024-03-23T06:16:33;22.20;59.70
74153;DHT22;62505;46.070;14.492;2024-03-23T06:18:59;22.20;59.70
74153;DHT22;62505;46.070;14.492;2024-03-23T06:21:29;22.20;59.70
74153;DHT22;62505;46.070;14.492;2024-03-23T06:23:56;22.20;59.80
74153;DHT22;62505;46.070;14.492;2024-03-23T06:26:23;22.20;59.80
74153;DHT22;62505;46.070;14.492;2024-03-23T06:28:49;22.20;59.80
74153;DHT22;62505;46.070;14.492;2024-03-23T06:31:16;22.20;59.80
74153;DHT22;62505;46.070;14.492;2024-03-23T06:33:42;22.20;59.80
74153;DHT22;62505;46.070;14.492;2024-03-23T06:36:10;22.20;59.80
74153;DHT22;62505;46.070;14.492;2024-03-23T06:38:36;22.20;59.90
74153;DHT22;62505;46.070;14.492;2024-03-23T06:41:05;22.20;59.90
74153;DHT22;62505;46.070;14.492;2024-03-23T06:43:31;22.20;59.80
74153;DHT22;62505;46.070;14.492;2024-03-23T06:45:58;22.20;59.90
74153;DHT22;62505;46.070;14.492;2024-03-23T06:48:24;22.20;59.90
74153;DHT22;62505;46.070;14.492;2024-03-23T06:50:55;22.20;59.90
74153;DHT22;62505;46.070;14.492;2024-03-23T06:53:21;22.20;59.90
74153;DHT22;62505;46.070;14.492;2024-03-23T06:55:51;22.20;59.90
74153;DHT22;62505;46.070;14.492;2024-03-23T06:58:19;22.20;60.00
74153;DHT22;62505;46.070;14.492;2024-03-23T07:00:46;22.20;60.00
74153;DHT22;62505;46.070;14.492;2024-03-23T07:03:12;22.20;59.90
74153;DHT22;62505;46.070;14.492;2024-03-23T07:05:39;22.20;60.00
74153;DHT22;62505;46.070;14.492;2024-03-23T07:08:05;22.20;60.00
74153;DHT22;62505;46.070;14.492;2024-03-23T07:10:32;22.20;60.00
74153;DHT22;62505;46.070;14.492;2024-03-23T07:12:58;22.20;60.00
74153;DHT22;62505;46.070;14.492;2024-03-23T07:15:27;22.20;60.00
74153;DHT22;62505;46.070;14.492;2024-03-23T07:17:53;22.30;60.10
74153;DHT22;62505;46.070;14.492;2024-03-23T07:20:20;22.20;60.00
74153;DHT22;62505;46.070;14.492;2024-03-23T07:22:46;22.20;59.90
74153;DHT22;62505;46.070;14.492;2024-03-23T07:25:14;22.20;59.80
74153;DHT22;62505;46.070;14.492;2024-03-23T07:27:40;22.30;59.90
74153;DHT22;62505;46.070;14.492;2024-03-23T07:30:08;22.30;59.90
74153;DHT22;62505;46.070;14.492;2024-03-23T07:32:35;22.30;59.90
74153;DHT22;62505;46.070;14.492;2024-03-23T07:35:03;22.30;59.70
74153;DHT22;62505;46.070;14.492;2024-03-23T07:37:29;22.30;59.70
74153;DHT22;62505;46.070;14.492;2024-03-23T07:39:56;22.30;59.60
74153;DHT22;62505;46.070;14.492;2024-03-23T07:42:23;22.30;59.50
74153;DHT22;62505;46.070;14.492;2024-03-23T07:44:52;22.30;59.50
74153;DHT22;62505;46.070;14.492;2024-03-23T07:47:19;22.30;59.50
74153;DHT22;62505;46.070;14.492;2024-03-23T07:49:47;22.30;59.50
74153;DHT22;62505;46.070;14.492;2024-03-23T07:52:14;22.30;59.40
74153;DHT22;62505;46.070;14.492;2024-03-23T07:54:41;22.30;59.40
74153;DHT22;62505;46.070;14.492;2024-03-23T07:57:07;22.30;59.40
74153;DHT22;62505;46.070;14.492;2024-03-23T07:59:34;22.30;59.40
74153;DHT22;62505;46.070;14.492;2024-03-23T08:02:00;22.30;59.30
74153;DHT22;62505;46.070;14.492;2024-03-23T08:04:27;22.30;59.20
74153;DHT22;62505;46.070;14.492;2024-03-23T08:06:55;22.30;59.40
74153;DHT22;62505;46.070;14.492;2024-03-23T08:09:22;22.30;59.20
74153;DHT22;62505;46.070;14.492;2024-03-23T08:11:49;22.30;59.10
74153;DHT22;62505;46.070;14.492;2024-03-23T08:14:15;22.30;59.10
74153;DHT22;62505;46.070;14.492;2024-03-23T08:16:41;22.30;58.90
74153;DHT22;62505;46.070;14.492;2024-03-23T08:19:14;22.30;59.10
74153;DHT22;62505;46.070;14.492;2024-03-23T08:21:40;22.30;58.90
74153;DHT22;62505;46.070;14.492;2024-03-23T08:24:08;22.30;58.90
74153;DHT22;62505;46.070;14.492;2024-03-23T08:26:35;22.30;58.90
74153;DHT22;62505;46.070;14.492;2024-03-23T08:29:03;22.30;59.00
74153;DHT22;62505;46.070;14.492;2024-03-23T08:31:30;22.20;58.80
74153;DHT22;62505;46.070;14.492;2024-03-23T08:33:56;22.30;58.90
74153;DHT22;62505;46.070;14.492;2024-03-23T08:36:23;22.30;58.80
74153;DHT22;62505;46.070;14.492;2024-03-23T08:38:49;22.30;58.90
74153;DHT22;62505;46.070;14.492;2024-03-23T08:41:20;22.30;58.90
74153;DHT22;62505;46.070;14.492;2024-03-23T08:43:46;22.30;58.90
74153;DHT22;62505;46.070;14.492;2024-03-23T08:46:14;22.30;58.80
74153;DHT22;62505;46.070;14.492;2024-03-23T08:48:41;22.30;58.80
74153;DHT22;62505;46.070;14.492;2024-03-23T08:51:10;22.30;58.80
74153;DHT22;62505;46.070;14.492;2024-03-23T08:53:37;22.30;58.80
74153;DHT22;62505;46.070;14.492;2024-03-23T08:56:06;22.30;58.90
74153;DHT22;62505;46.070;14.492;2024-03-23T08:58:35;22.30;58.90
74153;DHT22;62505;46.070;14.492;2024-03-23T09:01:07;22.30;58.80
74153;DHT22;62505;46.070;14.492;2024-03-23T09:03:33;22.30;58.90
74153;DHT22;62505;46.070;14.492;2024-03-23T09:06:00;22.30;58.90
74153;DHT22;62505;46.070;14.492;2024-03-23T09:08:27;22.30;58.80
74153;DHT22;62505;46.070;14.492;2024-03-23T09:10:54;22.30;58.90
74153;DHT22;62505;46.070;14.492;2024-03-23T09:13:20;22.30;58.90
74153;DHT22;62505;46.070;14.492;2024-03-23T09:15:49;22.30;58.90
74153;DHT22;62505;46.070;14.492;2024-03-23T09:18:16;22.30;58.80
74153;DHT22;62505;46.070;14.492;2024-03-23T09:20:43;22.30;58.90
74153;DHT22;62505;46.070;14.492;2024-03-23T09:23:09;22.30;58.90
74153;DHT22;62505;46.070;14.492;2024-03-23T09:25:36;22.30;58.90
74153;DHT22;62505;46.070;14.492;2024-03-23T09:28:03;22.30;58.90
74153;DHT22;62505;46.070;14.492;2024-03-23T09:30:31;22.30;58.80
74153;DHT22;62505;46.070;14.492;2024-03-23T09:32:59;22.30;59.00
74153;DHT22;62505;46.070;14.492;2024-03-23T09:35:26;22.30;58.90
74153;DHT22;62505;46.070;14.492;2024-03-23T09:37:52;22.30;59.00
74153;DHT22;62505;46.070;14.492;2024-03-23T09:40:20;22.30;58.90
74153;DHT22;62505;46.070;14.492;2024-03-23T09:42:50;22.30;59.00
74153;DHT22;62505;46.070;14.492;2024-03-23T09:45:19;22.30;59.00
74153;DHT22;62505;46.070;14.492;2024-03-23T09:47:46;22.30;58.90
74153;DHT22;62505;46.070;14.492;2024-03-23T09:50:14;22.30;58.90
74153;DHT22;62505;46.070;14.492;2024-03-23T09:52:40;22.30;58.80
74153;DHT22;62505;46.070;14.492;2024-03-23T09:55:08;22.30;58.80
74153;DHT22;62505;46.070;14.492;2024-03-23T09:57:34;22.30;58.50
74153;DHT22;62505;46.070;14.492;2024-03-23T10:00:01;22.30;58.60
74153;DHT22;62505;46.070;14.492;2024-03-23T10:02:28;22.30;58.60
74153;DHT22;62505;46.070;14.492;2024-03-23T10:04:55;22.30;58.50
74153;DHT22;62505;46.070;14.492;2024-03-23T10:07:26;22.30;58.30
74153;DHT22;62505;46.070;14.492;2024-03-23T10:09:54;22.30;58.50
74153;DHT22;62505;46.070;14.492;2024-03-23T10:12:20;22.30;58.50
74153;DHT22;62505;46.070;14.492;2024-03-23T10:14:47;22.30;58.40
74153;DHT22;62505;46.070;14.492;2024-03-23T10:17:16;22.30;58.30
74153;DHT22;62505;46.070;14.492;2024-03-23T10:19:43;22.30;58.20
74153;DHT22;62505;46.070;14.492;2024-03-23T10:22:14;22.30;58.00
74153;DHT22;62505;46.070;14.492;2024-03-23T10:24:41;22.30;58.00
74153;DHT22;62505;46.070;14.492;2024-03-23T10:27:08;22.30;58.00
74153;DHT22;62505;46.070;14.492;2024-03-23T10:29:35;22.30;58.10
74153;DHT22;62505;46.070;14.492;2024-03-23T10:32:09;22.30;58.20
74153;DHT22;62505;46.070;14.492;2024-03-23T10:34:35;22.30;58.20
74153;DHT22;62505;46.070;14.492;2024-03-23T10:37:03;22.30;58.10
74153;DHT22;62505;46.070;14.492;2024-03-23T10:39:33;22.30;58.10
74153;DHT22;62505;46.070;14.492;2024-03-23T10:42:04;22.20;58.20
74153;DHT22;62505;46.070;14.492;2024-03-23T10:44:31;22.30;58.20
74153;DHT22;62505;46.070;14.492;2024-03-23T10:46:59;22.30;58.20
74153;DHT22;62505;46.070;14.492;2024-03-23T10:49:28;22.30;58.20
74153;DHT22;62505;46.070;14.492;2024-03-23T10:51:57;22.30;58.20
74153;DHT22;62505;46.070;14.492;2024-03-23T10:54:24;22.30;58.20
74153;DHT22;62505;46.070;14.492;2024-03-23T10:56:57;22.30;58.30
74153;DHT22;62505;46.070;14.492;2024-03-23T10:59:26;22.30;58.30
74153;DHT22;62505;46.070;14.492;2024-03-23T11:01:54;22.30;58.50
74153;DHT22;62505;46.070;14.492;2024-03-23T11:04:29;22.30;58.40
74153;DHT22;62505;46.070;14.492;2024-03-23T11:06:57;22.30;58.50
74153;DHT22;62505;46.070;14.492;2024-03-23T11:09:39;22.30;58.60
74153;DHT22;62505;46.070;14.492;2024-03-23T11:12:30;22.30;58.50
74153;DHT22;62505;46.070;14.492;2024-03-23T11:15:02;22.30;58.60
74153;DHT22;62505;46.070;14.492;2024-03-23T11:17:29;22.30;58.60
74153;DHT22;62505;46.070;14.492;2024-03-23T11:19:57;22.30;58.60
74153;DHT22;62505;46.070;14.492;2024-03-23T11:22:40;22.30;58.60
74153;DHT22;62505;46.070;14.492;2024-03-23T11:25:17;22.30;58.60
74153;DHT22;62505;46.070;14.492;2024-03-23T11:27:44;22.30;59.30
74153;DHT22;62505;46.070;14.492;2024-03-23T11:30:16;22.30;58.70
74153;DHT22;62505;46.070;14.492;2024-03-23T11:32:43;22.30;58.70
74153;DHT22;62505;46.070;14.492;2024-03-23T11:35:10;22.30;58.70
74153;DHT22;62505;46.070;14.492;2024-03-23T11:37:37;22.30;58.70
74153;DHT22;62505;46.070;14.492;2024-03-23T11:40:17;22.30;58.70
74153;DHT22;62505;46.070;14.492;2024-03-23T11:42:43;22.30;58.80
74153;DHT22;62505;46.070;14.492;2024-03-23T11:45:11;22.30;58.80
74153;DHT22;62505;46.070;14.492;2024-03-23T11:47:39;22.30;58.80
74153;DHT22;62505;46.070;14.492;2024-03-23T11:50:06;22.30;58.80
74153;DHT22;62505;46.070;14.492;2024-03-23T11:52:32;22.30;58.80
74153;DHT22;62505;46.070;14.492;2024-03-23T11:55:06;22.30;58.80
74153;DHT22;62505;46.070;14.492;2024-03-23T11:57:34;22.30;58.80
74153;DHT22;62505;46.070;14.492;2024-03-23T12:00:01;22.30;58.80
74153;DHT22;62505;46.070;14.492;2024-03-23T12:02:27;22.30;58.80
74153;DHT22;62505;46.070;14.492;2024-03-23T12:04:56;22.30;58.90
74153;DHT22;62505;46.070;14.492;2024-03-23T12:07:22;22.30;58.90
74153;DHT22;62505;46.070;14.492;2024-03-23T12:10:02;22.30;58.90
74153;DHT22;62505;46.070;14.492;2024-03-23T12:12:28;22.30;58.90
74153;DHT22;62505;46.070;14.492;2024-03-23T12:15:02;22.30;59.00
74153;DHT22;62505;46.070;14.492;2024-03-23T12:17:28;22.30;59.00
74153;DHT22;62505;46.070;14.492;2024-03-23T12:19:57;22.30;58.90
74153;DHT22;62505;46.070;14.492;2024-03-23T12:22:23;22.30;59.00
74153;DHT22;62505;46.070;14.492;2024-03-23T12:24:50;22.30;59.00
74153;DHT22;62505;46.070;14.492;2024-03-23T12:27:17;22.30;59.00
74153;DHT22;62505;46.070;14.492;2024-03-23T12:29:44;22.30;59.00
74153;DHT22;62505;46.070;14.492;2024-03-23T12:32:12;22.30;59.00
74153;DHT22;62505;46.070;14.492;2024-03-23T12:34:39;22.30;59.10
74153;DHT22;62505;46.070;14.492;2024-03-23T12:37:07;22.30;59.00
74153;DHT22;62505;46.070;14.492;2024-03-23T12:39:34;22.30;59.10
74153;DHT22;62505;46.070;14.492;2024-03-23T12:42:01;22.30;59.10
74153;DHT22;62505;46.070;14.492;2024-03-23T12:44:28;22.30;59.10
74153;DHT22;62505;46.070;14.492;2024-03-23T12:46:54;22.30;59.10
74153;DHT22;62505;46.070;14.492;2024-03-23T12:49:21;22.30;59.10
74153;DHT22;62505;46.070;14.492;2024-03-23T12:51:53;22.30;59.10
74153;DHT22;62505;46.070;14.492;2024-03-23T12:54:22;22.30;59.10
74153;DHT22;62505;46.070;14.492;2024-03-23T12:56:48;22.30;59.10
74153;DHT22;62505;46.070;14.492;2024-03-23T12:59:15;22.30;59.10
74153;DHT22;62505;46.070;14.492;2024-03-23T13:01:42;22.30;59.10
74153;DHT22;62505;46.070;14.492;2024-03-23T13:04:09;22.30;59.10
74153;DHT22;62505;46.070;14.492;2024-03-23T13:06:35;22.30;59.10
74153;DHT22;62505;46.070;14.492;2024-03-23T13:09:02;22.30;59.10
74153;DHT22;62505;46.070;14.492;2024-03-23T13:11:30;22.30;59.10
74153;DHT22;62505;46.070;14.492;2024-03-23T13:13:57;22.30;59.20
74153;DHT22;62505;46.070;14.492;2024-03-23T13:16:23;22.30;59.20
74153;DHT22;62505;46.070;14.492;2024-03-23T13:18:50;22.30;59.20
74153;DHT22;62505;46.070;14.492;2024-03-23T13:21:16;22.30;59.20
74153;DHT22;62505;46.070;14.492;2024-03-23T13:23:46;22.30;59.20
74153;DHT22;62505;46.070;14.492;2024-03-23T13:26:13;22.30;59.30
74153;DHT22;62505;46.070;14.492;2024-03-23T13:28:41;22.30;59.30
74153;DHT22;62505;46.070;14.492;2024-03-23T13:31:07;22.30;59.20
74153;DHT22;62505;46.070;14.492;2024-03-23T13:33:34;22.30;59.30
74153;DHT22;62505;46.070;14.492;2024-03-23T13:36:00;22.30;59.30
74153;DHT22;62505;46.070;14.492;2024-03-23T13:38:28;22.30;59.30
74153;DHT22;62505;46.070;14.492;2024-03-23T13:40:55;22.30;59.90
74153;DHT22;62505;46.070;14.492;2024-03-23T13:43:23;22.30;59.30
74153;DHT22;62505;46.070;14.492;2024-03-23T13:45:53;22.30;59.30
74153;DHT22;62505;46.070;14.492;2024-03-23T13:48:21;22.30;59.30
74153;DHT22;62505;46.070;14.492;2024-03-23T13:50:47;22.30;59.40
74153;DHT22;62505;46.070;14.492;2024-03-23T13:53:14;22.30;59.40
74153;DHT22;62505;46.070;14.492;2024-03-23T13:55:46;22.30;59.40
74153;DHT22;62505;46.070;14.492;2024-03-23T13:58:13;22.30;59.40
74153;DHT22;62505;46.070;14.492;2024-03-23T14:00:39;22.30;59.40
74153;DHT22;62505;46.070;14.492;2024-03-23T14:03:09;22.30;59.40
74153;DHT22;62505;46.070;14.492;2024-03-23T14:05:35;22.30;59.40
74153;DHT22;62505;46.070;14.492;2024-03-23T14:08:04;22.30;59.40
74153;DHT22;62505;46.070;14.492;2024-03-23T14:10:30;22.30;59.40
74153;DHT22;62505;46.070;14.492;2024-03-23T14:12:57;22.30;59.40
74153;DHT22;62505;46.070;14.492;2024-03-23T14:15:23;22.30;59.40
74153;DHT22;62505;46.070;14.492;2024-03-23T14:17:50;22.30;59.40
74153;DHT22;62505;46.070;14.492;2024-03-23T14:20:18;22.30;59.40
74153;DHT22;62505;46.070;14.492;2024-03-23T14:22:45;22.30;59.40
74153;DHT22;62505;46.070;14.492;2024-03-23T14:25:11;22.30;59.50
74153;DHT22;62505;46.070;14.492;2024-03-23T14:27:38;22.30;59.40
74153;DHT22;62505;46.070;14.492;2024-03-23T14:30:04;22.30;59.50
74153;DHT22;62505;46.070;14.492;2024-03-23T14:32:32;22.30;59.50
74153;DHT22;62505;46.070;14.492;2024-03-23T14:34:59;22.30;59.50
74153;DHT22;62505;46.070;14.492;2024-03-23T14:37:28;22.30;59.50
74153;DHT22;62505;46.070;14.492;2024-03-23T14:39:55;22.30;59.50
74153;DHT22;62505;46.070;14.492;2024-03-23T14:42:23;22.30;59.50
74153;DHT22;62505;46.070;14.492;2024-03-23T14:44:50;22.30;59.50
74153;DHT22;62505;46.070;14.492;2024-03-23T14:47:16;22.30;60.20
74153;DHT22;62505;46.070;14.492;2024-03-23T14:49:44;22.30;59.50
74153;DHT22;62505;46.070;14.492;2024-03-23T14:52:12;22.30;59.60
74153;DHT22;62505;46.070;14.492;2024-03-23T14:54:41;22.30;59.50
74153;DHT22;62505;46.070;14.492;2024-03-23T14:57:06;22.30;59.60
74153;DHT22;62505;46.070;14.492;2024-03-23T14:59:34;22.30;59.60
74153;DHT22;62505;46.070;14.492;2024-03-23T15:02:00;22.30;59.60
74153;DHT22;62505;46.070;14.492;2024-03-23T15:04:27;22.30;59.60
74153;DHT22;62505;46.070;14.492;2024-03-23T15:06:53;22.30;59.60
74153;DHT22;62505;46.070;14.492;2024-03-23T15:09:20;22.30;59.60
74153;DHT22;62505;46.070;14.492;2024-03-23T15:11:47;22.30;59.60
74153;DHT22;62505;46.070;14.492;2024-03-23T15:14:14;22.30;59.60
74153;DHT22;62505;46.070;14.492;2024-03-23T15:16:40;22.30;59.70
74153;DHT22;62505;46.070;14.492;2024-03-23T15:19:07;22.30;59.70
74153;DHT22;62505;46.070;14.492;2024-03-23T15:21:34;22.30;59.70
74153;DHT22;62505;46.070;14.492;2024-03-23T15:24:01;22.30;59.70
74153;DHT22;62505;46.070;14.492;2024-03-23T15:26:27;22.30;59.60
74153;DHT22;62505;46.070;14.492;2024-03-23T15:28:55;22.30;59.70
74153;DHT22;62505;46.070;14.492;2024-03-23T15:31:36;22.30;59.70
74153;DHT22;62505;46.070;14.492;2024-03-23T15:34:04;22.30;59.70
74153;DHT22;62505;46.070;14.492;2024-03-23T15:36:30;22.30;59.70
74153;DHT22;62505;46.070;14.492;2024-03-23T15:38:57;22.30;59.70
74153;DHT22;62505;46.070;14.492;2024-03-23T15:41:23;22.30;59.70
74153;DHT22;62505;46.070;14.492;2024-03-23T15:43:50;22.30;59.70
74153;DHT22;62505;46.070;14.492;2024-03-23T15:46:17;22.30;59.70
74153;DHT22;62505;46.070;14.492;2024-03-23T15:48:45;22.30;59.70
74153;DHT22;62505;46.070;14.492;2024-03-23T15:51:12;22.30;59.70
74153;DHT22;62505;46.070;14.492;2024-03-23T15:53:39;22.30;60.40
74153;DHT22;62505;46.070;14.492;2024-03-23T15:56:06;22.30;59.70
74153;DHT22;62505;46.070;14.492;2024-03-23T15:58:33;22.30;59.70
74153;DHT22;62505;46.070;14.492;2024-03-23T16:01:01;22.30;59.70
74153;DHT22;62505;46.070;14.492;2024-03-23T16:03:30;22.30;59.70
74153;DHT22;62505;46.070;14.492;2024-03-23T16:05:57;22.30;59.70
74153;DHT22;62505;46.070;14.492;2024-03-23T16:08:24;22.30;59.80
74153;DHT22;62505;46.070;14.492;2024-03-23T16:10:51;22.30;59.80